Main page
METAR-TAF:

METAR-TAF

Airports :

Christchurch, New Zealand

Christchurch International Airport

latitude: 43-29S, longitude: 172-33E, elevation: 38 m

Current weather observation

The report was made 35 minutes ago, at 13:30 UTC
Wind 7 kt from the East
Temperature 9°C
Humidity 87%
Pressure 997 hPa
Visibility 10 km or more

METAR: NZCH 211330Z AUTO 08007KT 9999 NCD 09/07 Q0997 NOSIG

Time: 03:05 (14:05 UTC)

Forecast

The report was made 3 hours and 1 minutes ago, at 11:04 UTC
Forecast valid from 21 at 12 UTC to 22 at 12 UTC
Wind 8 kt from the East/Northeast
Visibility 10 km or more
no clouds below 1500 m and no cumulonimbus
Becoming
from 21 at 16 UTC to 21 at 18 UTC
Wind 10 kt from the West/Northwest
Becoming
from 22 at 00 UTC to 22 at 02 UTC
Wind 15 kt from the West/Northwest with gusts up to 30 kt
Becoming
from 22 at 05 UTC to 22 at 07 UTC
Wind 8 kt from the West/Northwest

TAF: NZCH 211104Z 2112/2212 06008KT CAVOK BECMG 2116/2118 30010KT BECMG 2200/2202 30015G30KT BECMG 2205/2207 30008KT

Weather observations and forecasts of more than 4000 airports (METAR and TAF reports).

The available stations are represented by yellow and red dots on the map.

Hover mouse over dot to see the name of the station.

Then click to see weather observations and forecasts.

To change the map : click on the green buttons with a black cross to zoom in, on the green button with a dash to zoom out, or on the green arrows for adjacent maps.


METAR-TAF: